sensor_id;sensor_type;location;lat;lon;timestamp;P1;durP1;ratioP1;P2;durP2;ratioP2
19727;SDS011;10015;52.530;13.390;2023-04-24T00:00:22;7.40;;;4.23;;
19727;SDS011;10015;52.530;13.390;2023-04-24T00:02:48;7.63;;;3.90;;
19727;SDS011;10015;52.530;13.390;2023-04-24T00:05:14;6.97;;;3.67;;
19727;SDS011;10015;52.530;13.390;2023-04-24T00:07:41;5.97;;;3.97;;
19727;SDS011;10015;52.530;13.390;2023-04-24T00:10:08;5.07;;;3.90;;
19727;SDS011;10015;52.530;13.390;2023-04-24T00:12:34;5.70;;;3.93;;
19727;SDS011;10015;52.530;13.390;2023-04-24T00:15:00;5.60;;;3.83;;
19727;SDS011;10015;52.530;13.390;2023-04-24T00:17:27;5.27;;;3.77;;
19727;SDS011;10015;52.530;13.390;2023-04-24T00:19:53;5.07;;;3.80;;
19727;SDS011;10015;52.530;13.390;2023-04-24T00:22:24;5.10;;;3.87;;
19727;SDS011;10015;52.530;13.390;2023-04-24T00:24:53;4.50;;;3.80;;
19727;SDS011;10015;52.530;13.390;2023-04-24T00:27:20;6.67;;;3.90;;
19727;SDS011;10015;52.530;13.390;2023-04-24T00:29:46;5.63;;;4.20;;
19727;SDS011;10015;52.530;13.390;2023-04-24T00:32:12;5.33;;;4.17;;
19727;SDS011;10015;52.530;13.390;2023-04-24T00:34:39;7.07;;;4.23;;
19727;SDS011;10015;52.530;13.390;2023-04-24T00:37:05;6.20;;;4.30;;
19727;SDS011;10015;52.530;13.390;2023-04-24T00:39:31;4.40;;;3.70;;
19727;SDS011;10015;52.530;13.390;2023-04-24T00:41:57;6.33;;;4.17;;
19727;SDS011;10015;52.530;13.390;2023-04-24T00:44:24;5.27;;;3.73;;
19727;SDS011;10015;52.530;13.390;2023-04-24T00:46:50;5.53;;;3.67;;
19727;SDS011;10015;52.530;13.390;2023-04-24T00:49:22;6.67;;;4.27;;
19727;SDS011;10015;52.530;13.390;2023-04-24T00:51:49;5.40;;;4.30;;
19727;SDS011;10015;52.530;13.390;2023-04-24T00:54:16;4.73;;;3.90;;
19727;SDS011;10015;52.530;13.390;2023-04-24T00:56:43;5.73;;;4.00;;
19727;SDS011;10015;52.530;13.390;2023-04-24T00:59:14;5.50;;;4.13;;
19727;SDS011;10015;52.530;13.390;2023-04-24T01:01:42;5.77;;;4.00;;
19727;SDS011;10015;52.530;13.390;2023-04-24T01:04:10;5.17;;;3.80;;
19727;SDS011;10015;52.530;13.390;2023-04-24T01:06:40;5.07;;;4.00;;
19727;SDS011;10015;52.530;13.390;2023-04-24T01:09:09;5.97;;;3.83;;
19727;SDS011;10015;52.530;13.390;2023-04-24T01:11:37;7.43;;;4.50;;
19727;SDS011;10015;52.530;13.390;2023-04-24T01:14:04;5.67;;;3.90;;
19727;SDS011;10015;52.530;13.390;2023-04-24T01:16:30;6.00;;;4.10;;
19727;SDS011;10015;52.530;13.390;2023-04-24T01:18:56;7.33;;;4.70;;
19727;SDS011;10015;52.530;13.390;2023-04-24T01:21:22;6.07;;;4.47;;
19727;SDS011;10015;52.530;13.390;2023-04-24T01:23:53;6.73;;;4.30;;
19727;SDS011;10015;52.530;13.390;2023-04-24T01:26:20;6.80;;;4.40;;
19727;SDS011;10015;52.530;13.390;2023-04-24T01:28:46;5.57;;;4.40;;
19727;SDS011;10015;52.530;13.390;2023-04-24T01:31:13;5.83;;;4.23;;
19727;SDS011;10015;52.530;13.390;2023-04-24T01:33:41;5.97;;;4.30;;
19727;SDS011;10015;52.530;13.390;2023-04-24T01:36:08;6.10;;;4.50;;
19727;SDS011;10015;52.530;13.390;2023-04-24T01:38:36;5.83;;;4.37;;
19727;SDS011;10015;52.530;13.390;2023-04-24T01:41:03;6.17;;;4.50;;
19727;SDS011;10015;52.530;13.390;2023-04-24T01:43:29;4.90;;;3.97;;
19727;SDS011;10015;52.530;13.390;2023-04-24T01:45:57;5.97;;;4.20;;
19727;SDS011;10015;52.530;13.390;2023-04-24T01:48:23;7.00;;;4.90;;
19727;SDS011;10015;52.530;13.390;2023-04-24T01:50:49;5.43;;;4.07;;
19727;SDS011;10015;52.530;13.390;2023-04-24T01:53:15;6.67;;;4.70;;
19727;SDS011;10015;52.530;13.390;2023-04-24T01:55:41;5.80;;;4.63;;
19727;SDS011;10015;52.530;13.390;2023-04-24T01:58:07;7.30;;;4.90;;
19727;SDS011;10015;52.530;13.390;2023-04-24T02:00:33;7.13;;;4.90;;
19727;SDS011;10015;52.530;13.390;2023-04-24T02:02:59;5.97;;;4.70;;
19727;SDS011;10015;52.530;13.390;2023-04-24T02:05:27;6.50;;;4.70;;
19727;SDS011;10015;52.530;13.390;2023-04-24T02:07:54;5.87;;;4.60;;
19727;SDS011;10015;52.530;13.390;2023-04-24T02:10:20;6.93;;;4.70;;
19727;SDS011;10015;52.530;13.390;2023-04-24T02:12:46;7.33;;;4.70;;
19727;SDS011;10015;52.530;13.390;2023-04-24T02:15:12;6.00;;;4.70;;
19727;SDS011;10015;52.530;13.390;2023-04-24T02:17:38;8.37;;;5.00;;
19727;SDS011;10015;52.530;13.390;2023-04-24T02:20:05;8.93;;;5.40;;
19727;SDS011;10015;52.530;13.390;2023-04-24T02:22:32;7.87;;;5.10;;
19727;SDS011;10015;52.530;13.390;2023-04-24T02:25:01;6.90;;;4.60;;
19727;SDS011;10015;52.530;13.390;2023-04-24T02:27:28;7.73;;;5.23;;
19727;SDS011;10015;52.530;13.390;2023-04-24T02:29:54;6.60;;;5.23;;
19727;SDS011;10015;52.530;13.390;2023-04-24T02:32:20;5.53;;;4.07;;
19727;SDS011;10015;52.530;13.390;2023-04-24T02:34:46;7.17;;;5.37;;
19727;SDS011;10015;52.530;13.390;2023-04-24T02:37:12;7.10;;;5.03;;
19727;SDS011;10015;52.530;13.390;2023-04-24T02:39:38;6.23;;;4.83;;
19727;SDS011;10015;52.530;13.390;2023-04-24T02:42:04;6.97;;;5.00;;
19727;SDS011;10015;52.530;13.390;2023-04-24T02:44:30;7.17;;;4.47;;
19727;SDS011;10015;52.530;13.390;2023-04-24T02:46:56;8.07;;;5.23;;
19727;SDS011;10015;52.530;13.390;2023-04-24T02:49:22;7.73;;;4.90;;
19727;SDS011;10015;52.530;13.390;2023-04-24T02:51:48;6.20;;;4.80;;
19727;SDS011;10015;52.530;13.390;2023-04-24T02:54:14;8.33;;;5.43;;
19727;SDS011;10015;52.530;13.390;2023-04-24T02:56:40;9.13;;;5.17;;
19727;SDS011;10015;52.530;13.390;2023-04-24T02:59:07;8.17;;;5.70;;
19727;SDS011;10015;52.530;13.390;2023-04-24T03:01:33;6.13;;;4.50;;
19727;SDS011;10015;52.530;13.390;2023-04-24T03:03:59;7.97;;;5.47;;
19727;SDS011;10015;52.530;13.390;2023-04-24T03:06:25;7.90;;;5.53;;
19727;SDS011;10015;52.530;13.390;2023-04-24T03:08:52;7.63;;;4.97;;
19727;SDS011;10015;52.530;13.390;2023-04-24T03:11:19;8.33;;;5.37;;
19727;SDS011;10015;52.530;13.390;2023-04-24T03:13:45;9.10;;;5.53;;
19727;SDS011;10015;52.530;13.390;2023-04-24T03:16:11;6.63;;;5.00;;
19727;SDS011;10015;52.530;13.390;2023-04-24T03:18:37;9.00;;;5.67;;
19727;SDS011;10015;52.530;13.390;2023-04-24T03:21:04;7.90;;;5.67;;
19727;SDS011;10015;52.530;13.390;2023-04-24T03:23:31;8.57;;;5.30;;
19727;SDS011;10015;52.530;13.390;2023-04-24T03:25:57;6.80;;;5.30;;
19727;SDS011;10015;52.530;13.390;2023-04-24T03:28:23;6.60;;;5.00;;
19727;SDS011;10015;52.530;13.390;2023-04-24T03:31:03;9.80;;;5.23;;
19727;SDS011;10015;52.530;13.390;2023-04-24T03:33:32;8.20;;;5.53;;
19727;SDS011;10015;52.530;13.390;2023-04-24T03:36:00;7.73;;;5.17;;
19727;SDS011;10015;52.530;13.390;2023-04-24T03:38:33;7.30;;;5.60;;
19727;SDS011;10015;52.530;13.390;2023-04-24T03:41:22;7.30;;;5.23;;
19727;SDS011;10015;52.530;13.390;2023-04-24T03:43:52;6.90;;;4.93;;
19727;SDS011;10015;52.530;13.390;2023-04-24T03:46:19;6.53;;;5.30;;
19727;SDS011;10015;52.530;13.390;2023-04-24T03:48:51;6.47;;;4.93;;
19727;SDS011;10015;52.530;13.390;2023-04-24T03:51:20;9.93;;;5.37;;
19727;SDS011;10015;52.530;13.390;2023-04-24T03:53:49;8.03;;;5.10;;
19727;SDS011;10015;52.530;13.390;2023-04-24T03:56:18;7.20;;;5.20;;
19727;SDS011;10015;52.530;13.390;2023-04-24T03:58:45;7.27;;;5.33;;
19727;SDS011;10015;52.530;13.390;2023-04-24T04:01:11;6.00;;;4.70;;
19727;SDS011;10015;52.530;13.390;2023-04-24T04:03:37;7.40;;;5.47;;
19727;SDS011;10015;52.530;13.390;2023-04-24T04:06:03;7.47;;;5.30;;
19727;SDS011;10015;52.530;13.390;2023-04-24T04:08:30;6.87;;;5.10;;
19727;SDS011;10015;52.530;13.390;2023-04-24T04:10:56;8.93;;;5.40;;
19727;SDS011;10015;52.530;13.390;2023-04-24T04:13:22;9.30;;;5.60;;
19727;SDS011;10015;52.530;13.390;2023-04-24T04:15:48;8.00;;;5.00;;
19727;SDS011;10015;52.530;13.390;2023-04-24T04:18:15;9.57;;;5.17;;
19727;SDS011;10015;52.530;13.390;2023-04-24T04:20:41;7.67;;;5.07;;
19727;SDS011;10015;52.530;13.390;2023-04-24T04:23:09;7.70;;;5.40;;
19727;SDS011;10015;52.530;13.390;2023-04-24T04:25:46;6.80;;;5.03;;
19727;SDS011;10015;52.530;13.390;2023-04-24T04:28:12;6.70;;;4.50;;
19727;SDS011;10015;52.530;13.390;2023-04-24T04:30:38;6.33;;;4.90;;
19727;SDS011;10015;52.530;13.390;2023-04-24T04:33:05;5.17;;;4.10;;
19727;SDS011;10015;52.530;13.390;2023-04-24T04:35:33;5.27;;;4.40;;
19727;SDS011;10015;52.530;13.390;2023-04-24T04:37:59;5.47;;;4.60;;
19727;SDS011;10015;52.530;13.390;2023-04-24T04:40:46;6.73;;;4.53;;
19727;SDS011;10015;52.530;13.390;2023-04-24T04:43:13;8.47;;;4.80;;
19727;SDS011;10015;52.530;13.390;2023-04-24T04:45:46;8.13;;;4.90;;
19727;SDS011;10015;52.530;13.390;2023-04-24T04:48:33;7.17;;;4.60;;
19727;SDS011;10015;52.530;13.390;2023-04-24T04:51:01;6.27;;;4.53;;
19727;SDS011;10015;52.530;13.390;2023-04-24T04:53:27;7.33;;;4.80;;
19727;SDS011;10015;52.530;13.390;2023-04-24T04:55:53;4.90;;;4.00;;
19727;SDS011;10015;52.530;13.390;2023-04-24T04:58:23;6.37;;;4.53;;
19727;SDS011;10015;52.530;13.390;2023-04-24T05:00:54;5.23;;;4.13;;
19727;SDS011;10015;52.530;13.390;2023-04-24T05:03:25;6.77;;;4.20;;
19727;SDS011;10015;52.530;13.390;2023-04-24T05:05:57;4.67;;;4.03;;
19727;SDS011;10015;52.530;13.390;2023-04-24T05:08:24;5.37;;;4.07;;
19727;SDS011;10015;52.530;13.390;2023-04-24T05:10:50;8.50;;;4.13;;
19727;SDS011;10015;52.530;13.390;2023-04-24T05:13:16;5.77;;;4.27;;
19727;SDS011;10015;52.530;13.390;2023-04-24T05:15:42;5.30;;;3.80;;
19727;SDS011;10015;52.530;13.390;2023-04-24T05:18:08;5.73;;;4.10;;
19727;SDS011;10015;52.530;13.390;2023-04-24T05:20:34;5.27;;;4.20;;
19727;SDS011;10015;52.530;13.390;2023-04-24T05:23:00;6.30;;;3.77;;
19727;SDS011;10015;52.530;13.390;2023-04-24T05:25:28;6.87;;;3.97;;
19727;SDS011;10015;52.530;13.390;2023-04-24T05:28:03;5.73;;;3.47;;
19727;SDS011;10015;52.530;13.390;2023-04-24T05:30:29;6.23;;;3.60;;
19727;SDS011;10015;52.530;13.390;2023-04-24T05:32:57;6.47;;;3.43;;
19727;SDS011;10015;52.530;13.390;2023-04-24T05:35:24;4.43;;;3.20;;
19727;SDS011;10015;52.530;13.390;2023-04-24T05:37:50;4.50;;;3.17;;
19727;SDS011;10015;52.530;13.390;2023-04-24T05:40:16;7.23;;;3.53;;
19727;SDS011;10015;52.530;13.390;2023-04-24T05:42:42;7.80;;;3.00;;
19727;SDS011;10015;52.530;13.390;2023-04-24T05:45:09;7.17;;;2.80;;
19727;SDS011;10015;52.530;13.390;2023-04-24T05:47:41;5.63;;;2.70;;
19727;SDS011;10015;52.530;13.390;2023-04-24T05:50:10;3.83;;;2.23;;
19727;SDS011;10015;52.530;13.390;2023-04-24T05:52:37;5.43;;;2.30;;
19727;SDS011;10015;52.530;13.390;2023-04-24T05:55:10;3.90;;;2.50;;
19727;SDS011;10015;52.530;13.390;2023-04-24T05:57:38;3.90;;;1.83;;
19727;SDS011;10015;52.530;13.390;2023-04-24T06:00:05;4.53;;;2.20;;
19727;SDS011;10015;52.530;13.390;2023-04-24T06:02:39;3.90;;;1.73;;
19727;SDS011;10015;52.530;13.390;2023-04-24T06:05:08;4.13;;;2.03;;
19727;SDS011;10015;52.530;13.390;2023-04-24T06:07:34;3.90;;;2.23;;
19727;SDS011;10015;52.530;13.390;2023-04-24T06:10:03;3.57;;;1.90;;
19727;SDS011;10015;52.530;13.390;2023-04-24T06:12:37;3.53;;;1.90;;
19727;SDS011;10015;52.530;13.390;2023-04-24T06:15:08;4.03;;;1.83;;
19727;SDS011;10015;52.530;13.390;2023-04-24T06:17:49;2.77;;;2.00;;
19727;SDS011;10015;52.530;13.390;2023-04-24T06:20:16;3.63;;;1.97;;
19727;SDS011;10015;52.530;13.390;2023-04-24T06:22:42;2.37;;;1.83;;
19727;SDS011;10015;52.530;13.390;2023-04-24T06:25:11;3.47;;;1.90;;
19727;SDS011;10015;52.530;13.390;2023-04-24T06:27:37;2.67;;;1.80;;
19727;SDS011;10015;52.530;13.390;2023-04-24T06:30:03;4.10;;;1.93;;
19727;SDS011;10015;52.530;13.390;2023-04-24T06:32:32;2.07;;;1.63;;
19727;SDS011;10015;52.530;13.390;2023-04-24T06:34:59;1.73;;;1.57;;
19727;SDS011;10015;52.530;13.390;2023-04-24T06:37:25;1.77;;;1.47;;
19727;SDS011;10015;52.530;13.390;2023-04-24T06:39:51;1.90;;;1.63;;
19727;SDS011;10015;52.530;13.390;2023-04-24T06:42:17;2.67;;;1.37;;
19727;SDS011;10015;52.530;13.390;2023-04-24T06:44:48;1.70;;;1.60;;
19727;SDS011;10015;52.530;13.390;2023-04-24T06:47:14;1.30;;;1.20;;
19727;SDS011;10015;52.530;13.390;2023-04-24T06:49:41;1.30;;;1.20;;
19727;SDS011;10015;52.530;13.390;2023-04-24T06:52:07;2.77;;;1.30;;
19727;SDS011;10015;52.530;13.390;2023-04-24T06:54:34;2.20;;;1.40;;
19727;SDS011;10015;52.530;13.390;2023-04-24T06:57:00;1.83;;;1.20;;
19727;SDS011;10015;52.530;13.390;2023-04-24T06:59:28;1.80;;;1.20;;
19727;SDS011;10015;52.530;13.390;2023-04-24T07:01:55;2.27;;;1.33;;
19727;SDS011;10015;52.530;13.390;2023-04-24T07:04:21;4.07;;;1.00;;
19727;SDS011;10015;52.530;13.390;2023-04-24T07:06:48;1.52;;;0.82;;
19727;SDS011;10015;52.530;13.390;2023-04-24T07:09:19;2.55;;;1.17;;
19727;SDS011;10015;52.530;13.390;2023-04-24T07:11:45;2.93;;;1.10;;
19727;SDS011;10015;52.530;13.390;2023-04-24T07:14:12;2.28;;;1.02;;
19727;SDS011;10015;52.530;13.390;2023-04-24T07:16:38;1.52;;;1.10;;
19727;SDS011;10015;52.530;13.390;2023-04-24T07:19:04;1.75;;;0.90;;
19727;SDS011;10015;52.530;13.390;2023-04-24T07:21:30;1.57;;;0.90;;
19727;SDS011;10015;52.530;13.390;2023-04-24T07:23:57;0.73;;;0.73;;
19727;SDS011;10015;52.530;13.390;2023-04-24T07:26:24;1.55;;;0.90;;
19727;SDS011;10015;52.530;13.390;2023-04-24T07:28:51;1.15;;;0.80;;
19727;SDS011;10015;52.530;13.390;2023-04-24T07:31:17;0.75;;;0.75;;
19727;SDS011;10015;52.530;13.390;2023-04-24T07:33:43;0.90;;;0.80;;
19727;SDS011;10015;52.530;13.390;2023-04-24T07:36:09;1.52;;;0.70;;
19727;SDS011;10015;52.530;13.390;2023-04-24T07:38:41;1.03;;;0.83;;
19727;SDS011;10015;52.530;13.390;2023-04-24T07:41:07;1.10;;;1.00;;
19727;SDS011;10015;52.530;13.390;2023-04-24T07:43:33;1.30;;;0.70;;
19727;SDS011;10015;52.530;13.390;2023-04-24T07:46:00;1.48;;;1.13;;
19727;SDS011;10015;52.530;13.390;2023-04-24T07:48:26;2.03;;;0.60;;
19727;SDS011;10015;52.530;13.390;2023-04-24T07:50:52;1.17;;;0.85;;
19727;SDS011;10015;52.530;13.390;2023-04-24T07:53:19;0.65;;;0.60;;
19727;SDS011;10015;52.530;13.390;2023-04-24T07:55:45;1.27;;;0.82;;
19727;SDS011;10015;52.530;13.390;2023-04-24T07:58:12;1.70;;;0.60;;
19727;SDS011;10015;52.530;13.390;2023-04-24T08:00:38;1.42;;;0.75;;
19727;SDS011;10015;52.530;13.390;2023-04-24T08:03:04;1.67;;;0.90;;
19727;SDS011;10015;52.530;13.390;2023-04-24T08:05:30;0.70;;;0.60;;
19727;SDS011;10015;52.530;13.390;2023-04-24T08:07:56;0.90;;;0.70;;
19727;SDS011;10015;52.530;13.390;2023-04-24T08:10:22;0.70;;;0.70;;
19727;SDS011;10015;52.530;13.390;2023-04-24T08:12:48;1.77;;;0.63;;
19727;SDS011;10015;52.530;13.390;2023-04-24T08:15:14;1.25;;;0.70;;
19727;SDS011;10015;52.530;13.390;2023-04-24T08:17:42;0.77;;;0.68;;
19727;SDS011;10015;52.530;13.390;2023-04-24T08:20:09;12.43;;;6.22;;
19727;SDS011;10015;52.530;13.390;2023-04-24T08:22:39;13.15;;;8.75;;
19727;SDS011;10015;52.530;13.390;2023-04-24T08:25:05;7.90;;;5.43;;
19727;SDS011;10015;52.530;13.390;2023-04-24T08:27:32;13.90;;;7.45;;
19727;SDS011;10015;52.530;13.390;2023-04-24T08:29:58;9.38;;;6.03;;
19727;SDS011;10015;52.530;13.390;2023-04-24T08:32:25;1.15;;;0.95;;
19727;SDS011;10015;52.530;13.390;2023-04-24T08:34:55;0.85;;;0.60;;
19727;SDS011;10015;52.530;13.390;2023-04-24T08:37:22;4.03;;;2.22;;
19727;SDS011;10015;52.530;13.390;2023-04-24T08:39:51;8.90;;;5.50;;
19727;SDS011;10015;52.530;13.390;2023-04-24T08:42:18;2.50;;;1.50;;
19727;SDS011;10015;52.530;13.390;2023-04-24T08:44:45;2.47;;;0.73;;
19727;SDS011;10015;52.530;13.390;2023-04-24T08:47:13;0.52;;;0.52;;
19727;SDS011;10015;52.530;13.390;2023-04-24T08:49:40;0.98;;;0.68;;
19727;SDS011;10015;52.530;13.390;2023-04-24T08:52:08;0.68;;;0.52;;
19727;SDS011;10015;52.530;13.390;2023-04-24T08:54:37;0.45;;;0.45;;
19727;SDS011;10015;52.530;13.390;2023-04-24T08:57:04;8.63;;;4.13;;
19727;SDS011;10015;52.530;13.390;2023-04-24T08:59:34;15.15;;;8.38;;
19727;SDS011;10015;52.530;13.390;2023-04-24T09:02:00;9.18;;;5.53;;
19727;SDS011;10015;52.530;13.390;2023-04-24T09:04:29;1.50;;;1.17;;
19727;SDS011;10015;52.530;13.390;2023-04-24T09:06:58;1.03;;;0.53;;
19727;SDS011;10015;52.530;13.390;2023-04-24T09:09:26;0.52;;;0.50;;
19727;SDS011;10015;52.530;13.390;2023-04-24T09:11:55;1.10;;;0.68;;
19727;SDS011;10015;52.530;13.390;2023-04-24T09:14:22;1.92;;;0.70;;
19727;SDS011;10015;52.530;13.390;2023-04-24T09:16:49;2.35;;;0.70;;
19727;SDS011;10015;52.530;13.390;2023-04-24T09:19:21;1.10;;;0.60;;
19727;SDS011;10015;52.530;13.390;2023-04-24T09:21:47;0.73;;;0.60;;
19727;SDS011;10015;52.530;13.390;2023-04-24T09:24:20;1.13;;;0.80;;
19727;SDS011;10015;52.530;13.390;2023-04-24T09:26:56;1.13;;;0.90;;
19727;SDS011;10015;52.530;13.390;2023-04-24T09:29:24;2.50;;;1.07;;
19727;SDS011;10015;52.530;13.390;2023-04-24T09:31:50;2.47;;;0.90;;
19727;SDS011;10015;52.530;13.390;2023-04-24T09:34:20;1.30;;;0.70;;
19727;SDS011;10015;52.530;13.390;2023-04-24T09:36:51;0.80;;;0.70;;
19727;SDS011;10015;52.530;13.390;2023-04-24T09:39:18;1.33;;;0.90;;
19727;SDS011;10015;52.530;13.390;2023-04-24T09:41:48;1.00;;;0.70;;
19727;SDS011;10015;52.530;13.390;2023-04-24T09:44:21;2.10;;;0.70;;
19727;SDS011;10015;52.530;13.390;2023-04-24T09:46:57;0.90;;;0.60;;
19727;SDS011;10015;52.530;13.390;2023-04-24T09:52:07;2.80;;;0.73;;
19727;SDS011;10015;52.530;13.390;2023-04-24T09:54:35;1.83;;;0.70;;
19727;SDS011;10015;52.530;13.390;2023-04-24T09:57:02;3.63;;;0.80;;
19727;SDS011;10015;52.530;13.390;2023-04-24T09:59:29;1.83;;;0.73;;
19727;SDS011;10015;52.530;13.390;2023-04-24T10:01:55;2.20;;;0.80;;
19727;SDS011;10015;52.530;13.390;2023-04-24T10:04:23;1.97;;;0.80;;
19727;SDS011;10015;52.530;13.390;2023-04-24T10:06:51;2.73;;;1.00;;
19727;SDS011;10015;52.530;13.390;2023-04-24T10:09:21;1.33;;;0.80;;
19727;SDS011;10015;52.530;13.390;2023-04-24T10:11:49;1.03;;;0.70;;
19727;SDS011;10015;52.530;13.390;2023-04-24T10:14:21;1.63;;;0.80;;
19727;SDS011;10015;52.530;13.390;2023-04-24T10:16:49;2.20;;;0.80;;
19727;SDS011;10015;52.530;13.390;2023-04-24T10:19:15;2.33;;;0.80;;
19727;SDS011;10015;52.530;13.390;2023-04-24T10:21:44;1.53;;;0.80;;
19727;SDS011;10015;52.530;13.390;2023-04-24T10:24:13;1.33;;;0.70;;
19727;SDS011;10015;52.530;13.390;2023-04-24T10:26:44;3.67;;;0.70;;
19727;SDS011;10015;52.530;13.390;2023-04-24T10:29:11;1.17;;;0.60;;
19727;SDS011;10015;52.530;13.390;2023-04-24T10:31:39;1.40;;;0.70;;
19727;SDS011;10015;52.530;13.390;2023-04-24T10:34:05;2.00;;;0.70;;
19727;SDS011;10015;52.530;13.390;2023-04-24T10:36:33;3.17;;;0.70;;
19727;SDS011;10015;52.530;13.390;2023-04-24T10:39:01;1.90;;;0.60;;
19727;SDS011;10015;52.530;13.390;2023-04-24T10:41:31;1.23;;;1.00;;
19727;SDS011;10015;52.530;13.390;2023-04-24T10:44:19;1.70;;;0.90;;
19727;SDS011;10015;52.530;13.390;2023-04-24T10:46:49;4.80;;;0.70;;
19727;SDS011;10015;52.530;13.390;2023-04-24T10:49:27;0.77;;;0.77;;
19727;SDS011;10015;52.530;13.390;2023-04-24T10:51:54;1.50;;;0.87;;
19727;SDS011;10015;52.530;13.390;2023-04-24T10:54:30;1.77;;;0.73;;
19727;SDS011;10015;52.530;13.390;2023-04-24T10:59:44;1.90;;;0.70;;
19727;SDS011;10015;52.530;13.390;2023-04-24T11:02:14;0.77;;;0.60;;
19727;SDS011;10015;52.530;13.390;2023-04-24T11:04:41;2.23;;;0.80;;
19727;SDS011;10015;52.530;13.390;2023-04-24T11:07:08;3.03;;;1.07;;
19727;SDS011;10015;52.530;13.390;2023-04-24T11:09:35;4.10;;;1.70;;
19727;SDS011;10015;52.530;13.390;2023-04-24T11:12:03;0.83;;;0.63;;
19727;SDS011;10015;52.530;13.390;2023-04-24T11:15:17;1.90;;;0.80;;
19727;SDS011;10015;52.530;13.390;2023-04-24T11:20:08;1.30;;;0.70;;
19727;SDS011;10015;52.530;13.390;2023-04-24T11:22:41;1.10;;;0.70;;
19727;SDS011;10015;52.530;13.390;2023-04-24T11:25:10;3.27;;;0.83;;
19727;SDS011;10015;52.530;13.390;2023-04-24T11:27:45;3.93;;;1.10;;
19727;SDS011;10015;52.530;13.390;2023-04-24T11:30:13;1.73;;;0.90;;
19727;SDS011;10015;52.530;13.390;2023-04-24T11:32:43;2.50;;;0.90;;
19727;SDS011;10015;52.530;13.390;2023-04-24T11:35:19;1.63;;;0.90;;
19727;SDS011;10015;52.530;13.390;2023-04-24T11:37:47;3.47;;;0.90;;
19727;SDS011;10015;52.530;13.390;2023-04-24T11:40:15;2.93;;;1.00;;
19727;SDS011;10015;52.530;13.390;2023-04-24T11:42:43;2.63;;;0.83;;
19727;SDS011;10015;52.530;13.390;2023-04-24T11:45:17;2.90;;;1.10;;
19727;SDS011;10015;52.530;13.390;2023-04-24T11:47:50;1.50;;;1.10;;
19727;SDS011;10015;52.530;13.390;2023-04-24T11:50:17;4.13;;;0.90;;
19727;SDS011;10015;52.530;13.390;2023-04-24T11:52:45;2.10;;;0.70;;
19727;SDS011;10015;52.530;13.390;2023-04-24T11:57:48;1.33;;;0.90;;
19727;SDS011;10015;52.530;13.390;2023-04-24T12:02:46;1.60;;;1.20;;
19727;SDS011;10015;52.530;13.390;2023-04-24T12:05:19;1.17;;;1.07;;
19727;SDS011;10015;52.530;13.390;2023-04-24T12:07:47;1.87;;;1.00;;
19727;SDS011;10015;52.530;13.390;2023-04-24T12:10:13;2.47;;;0.80;;
19727;SDS011;10015;52.530;13.390;2023-04-24T12:12:40;3.77;;;0.87;;
19727;SDS011;10015;52.530;13.390;2023-04-24T12:15:07;1.80;;;0.80;;
19727;SDS011;10015;52.530;13.390;2023-04-24T12:17:40;2.17;;;0.90;;
19727;SDS011;10015;52.530;13.390;2023-04-24T12:20:07;1.07;;;0.90;;
19727;SDS011;10015;52.530;13.390;2023-04-24T12:22:45;3.17;;;1.00;;
19727;SDS011;10015;52.530;13.390;2023-04-24T12:25:20;3.60;;;1.00;;
19727;SDS011;10015;52.530;13.390;2023-04-24T12:27:52;1.37;;;1.00;;
19727;SDS011;10015;52.530;13.390;2023-04-24T12:30:51;1.00;;;0.90;;
19727;SDS011;10015;52.530;13.390;2023-04-24T12:33:36;2.53;;;0.90;;
19727;SDS011;10015;52.530;13.390;2023-04-24T12:36:03;1.53;;;1.00;;
19727;SDS011;10015;52.530;13.390;2023-04-24T12:38:30;1.10;;;0.80;;
19727;SDS011;10015;52.530;13.390;2023-04-24T12:41:09;1.57;;;0.80;;
19727;SDS011;10015;52.530;13.390;2023-04-24T12:43:38;2.10;;;0.60;;
19727;SDS011;10015;52.530;13.390;2023-04-24T12:46:15;3.13;;;0.70;;
19727;SDS011;10015;52.530;13.390;2023-04-24T12:48:41;1.70;;;0.70;;
19727;SDS011;10015;52.530;13.390;2023-04-24T12:51:08;3.40;;;0.80;;
19727;SDS011;10015;52.530;13.390;2023-04-24T12:53:40;1.77;;;0.83;;
19727;SDS011;10015;52.530;13.390;2023-04-24T12:56:11;1.27;;;0.80;;
19727;SDS011;10015;52.530;13.390;2023-04-24T12:58:38;2.60;;;1.60;;
19727;SDS011;10015;52.530;13.390;2023-04-24T13:01:05;1.57;;;1.20;;
19727;SDS011;10015;52.530;13.390;2023-04-24T13:03:31;2.40;;;1.27;;
19727;SDS011;10015;52.530;13.390;2023-04-24T13:06:00;2.80;;;1.10;;
19727;SDS011;10015;52.530;13.390;2023-04-24T13:08:28;1.97;;;0.70;;
19727;SDS011;10015;52.530;13.390;2023-04-24T13:10:53;1.50;;;0.90;;
19727;SDS011;10015;52.530;13.390;2023-04-24T13:13:20;1.97;;;1.03;;
19727;SDS011;10015;52.530;13.390;2023-04-24T13:15:46;1.07;;;0.83;;
19727;SDS011;10015;52.530;13.390;2023-04-24T13:18:12;0.63;;;0.50;;
19727;SDS011;10015;52.530;13.390;2023-04-24T13:20:38;1.07;;;0.80;;
19727;SDS011;10015;52.530;13.390;2023-04-24T13:23:05;1.37;;;0.83;;
19727;SDS011;10015;52.530;13.390;2023-04-24T13:25:34;0.80;;;0.70;;
19727;SDS011;10015;52.530;13.390;2023-04-24T13:28:01;0.60;;;0.60;;
19727;SDS011;10015;52.530;13.390;2023-04-24T13:30:27;1.97;;;0.73;;
19727;SDS011;10015;52.530;13.390;2023-04-24T13:32:53;0.73;;;0.60;;
19727;SDS011;10015;52.530;13.390;2023-04-24T13:35:19;3.40;;;1.00;;
19727;SDS011;10015;52.530;13.390;2023-04-24T13:37:45;1.63;;;0.70;;
19727;SDS011;10015;52.530;13.390;2023-04-24T13:40:11;0.80;;;0.80;;
19727;SDS011;10015;52.530;13.390;2023-04-24T13:42:37;1.13;;;0.80;;
19727;SDS011;10015;52.530;13.390;2023-04-24T13:45:03;1.30;;;0.97;;
19727;SDS011;10015;52.530;13.390;2023-04-24T13:47:30;0.93;;;0.70;;
19727;SDS011;10015;52.530;13.390;2023-04-24T13:49:56;1.80;;;0.80;;
19727;SDS011;10015;52.530;13.390;2023-04-24T13:52:22;1.03;;;0.70;;
19727;SDS011;10015;52.530;13.390;2023-04-24T13:54:48;1.07;;;0.60;;
19727;SDS011;10015;52.530;13.390;2023-04-24T13:57:14;2.83;;;0.80;;
19727;SDS011;10015;52.530;13.390;2023-04-24T13:59:40;5.63;;;3.33;;
19727;SDS011;10015;52.530;13.390;2023-04-24T14:02:06;3.30;;;1.83;;
19727;SDS011;10015;52.530;13.390;2023-04-24T14:04:32;2.97;;;1.40;;
19727;SDS011;10015;52.530;13.390;2023-04-24T14:06:59;1.43;;;0.80;;
19727;SDS011;10015;52.530;13.390;2023-04-24T14:09:25;1.17;;;0.67;;
19727;SDS011;10015;52.530;13.390;2023-04-24T14:11:51;1.17;;;0.70;;
19727;SDS011;10015;52.530;13.390;2023-04-24T14:14:17;0.97;;;0.70;;
19727;SDS011;10015;52.530;13.390;2023-04-24T14:16:43;1.30;;;0.83;;
19727;SDS011;10015;52.530;13.390;2023-04-24T14:19:09;0.90;;;0.73;;
19727;SDS011;10015;52.530;13.390;2023-04-24T14:21:36;1.07;;;0.80;;
19727;SDS011;10015;52.530;13.390;2023-04-24T14:24:01;2.67;;;0.90;;
19727;SDS011;10015;52.530;13.390;2023-04-24T14:26:28;1.63;;;1.10;;
19727;SDS011;10015;52.530;13.390;2023-04-24T14:28:53;4.00;;;0.80;;
19727;SDS011;10015;52.530;13.390;2023-04-24T14:31:20;0.80;;;0.60;;
19727;SDS011;10015;52.530;13.390;2023-04-24T14:33:46;3.07;;;0.90;;
19727;SDS011;10015;52.530;13.390;2023-04-24T14:36:12;1.20;;;0.70;;
19727;SDS011;10015;52.530;13.390;2023-04-24T14:38:39;1.37;;;0.80;;
19727;SDS011;10015;52.530;13.390;2023-04-24T14:41:05;1.07;;;0.87;;
19727;SDS011;10015;52.530;13.390;2023-04-24T14:43:34;1.00;;;0.90;;
19727;SDS011;10015;52.530;13.390;2023-04-24T14:46:01;1.80;;;0.70;;
19727;SDS011;10015;52.530;13.390;2023-04-24T14:48:27;0.90;;;0.90;;
19727;SDS011;10015;52.530;13.390;2023-04-24T14:50:54;0.80;;;0.80;;